createdAt,value
2018-04-23T00:00:13.683Z,17.60
2018-04-23T00:02:41.222Z,17.50
2018-04-23T00:05:08.794Z,17.70
2018-04-23T00:07:36.337Z,17.80
2018-04-23T00:10:03.911Z,17.90
2018-04-23T00:12:31.441Z,17.90
2018-04-23T00:14:58.972Z,17.80
2018-04-23T00:17:27.297Z,17.80
2018-04-23T00:19:54.841Z,17.70
2018-04-23T00:22:22.399Z,17.80
2018-04-23T00:24:49.931Z,17.80
2018-04-23T00:27:18.280Z,17.70
2018-04-23T00:29:45.835Z,17.70
2018-04-23T00:32:13.389Z,17.70
2018-04-23T00:34:40.939Z,17.60
2018-04-23T00:37:08.492Z,17.60
2018-04-23T00:39:36.028Z,17.50
2018-04-23T00:42:03.577Z,17.40
2018-04-23T00:44:31.882Z,17.30
2018-04-23T00:46:59.429Z,17.20
2018-04-23T00:49:26.977Z,17.10
2018-04-23T00:51:55.323Z,17.00
2018-04-23T00:54:22.859Z,17.00
2018-04-23T00:56:50.392Z,16.90
2018-04-23T00:59:17.952Z,16.80
2018-04-23T01:01:45.491Z,16.70
2018-04-23T01:04:13.808Z,16.60
2018-04-23T01:06:41.340Z,16.50
2018-04-23T01:09:09.665Z,16.50
2018-04-23T01:11:37.198Z,16.40
2018-04-23T01:14:04.752Z,16.50
2018-04-23T01:16:32.292Z,16.50
2018-04-23T01:19:00.608Z,16.40
2018-04-23T01:21:28.151Z,16.40
2018-04-23T01:23:55.704Z,16.40
2018-04-23T01:26:23.238Z,16.30
2018-04-23T01:28:51.565Z,16.30
2018-04-23T01:31:19.092Z,16.30
2018-04-23T01:33:47.420Z,16.30
2018-04-23T01:36:14.951Z,16.30
2018-04-23T01:38:42.518Z,16.30
2018-04-23T01:41:10.044Z,16.30
2018-04-23T01:43:37.587Z,16.30
2018-04-23T01:46:05.145Z,16.20
2018-04-23T01:48:32.759Z,16.20
2018-04-23T01:51:00.320Z,16.20
2018-04-23T01:53:27.857Z,16.10
2018-04-23T01:55:55.434Z,16.00
2018-04-23T01:58:22.977Z,15.90
2018-04-23T02:00:50.535Z,15.90
2018-04-23T02:03:18.068Z,15.80
2018-04-23T02:05:45.631Z,15.80
2018-04-23T02:08:13.963Z,15.90
2018-04-23T02:10:41.556Z,15.80
2018-04-23T02:13:09.082Z,15.90
2018-04-23T02:15:36.645Z,15.90
2018-04-23T02:18:04.218Z,15.80
2018-04-23T02:20:31.775Z,15.90
2018-04-23T02:22:59.304Z,15.90
2018-04-23T02:25:26.894Z,15.90
2018-04-23T02:27:54.427Z,15.90
2018-04-23T02:30:21.957Z,15.90
2018-04-23T02:32:50.285Z,15.80
2018-04-23T02:35:17.824Z,15.80
2018-04-23T02:37:45.407Z,15.80
2018-04-23T02:40:12.948Z,15.80
2018-04-23T02:42:40.507Z,15.70
2018-04-23T02:45:08.044Z,15.70
2018-04-23T02:47:36.367Z,15.50
2018-04-23T02:50:03.898Z,15.50
2018-04-23T02:52:31.461Z,15.50
2018-04-23T02:54:59.001Z,15.30
2018-04-23T02:57:26.570Z,15.20
2018-04-23T02:59:54.122Z,15.10
2018-04-23T03:02:21.693Z,15.00
2018-04-23T03:04:49.248Z,15.00
2018-04-23T03:07:16.919Z,14.80
2018-04-23T03:09:44.484Z,14.80
2018-04-23T03:12:12.011Z,14.70
2018-04-23T03:14:39.559Z,14.60
2018-04-23T03:17:07.102Z,14.60
2018-04-23T03:19:34.658Z,14.60
2018-04-23T03:22:02.202Z,14.50
2018-04-23T03:24:29.753Z,14.50
2018-04-23T03:26:57.289Z,14.50
2018-04-23T03:29:25.616Z,14.40
2018-04-23T03:31:53.268Z,14.40
2018-04-23T03:34:20.827Z,14.40
2018-04-23T03:36:48.356Z,14.30
2018-04-23T03:39:15.964Z,14.30
2018-04-23T03:41:43.624Z,14.30
2018-04-23T03:44:11.187Z,14.30
2018-04-23T03:46:38.714Z,14.30
2018-04-23T03:49:06.278Z,14.20
2018-04-23T03:51:33.827Z,14.10
2018-04-23T03:54:01.425Z,14.10
2018-04-23T03:56:28.952Z,14.10
2018-04-23T03:58:56.968Z,14.10
2018-04-23T04:01:25.259Z,14.20
2018-04-23T04:03:52.803Z,14.20
2018-04-23T04:06:20.375Z,14.20
2018-04-23T04:08:47.928Z,14.30
2018-04-23T04:11:15.479Z,14.30
2018-04-23T04:13:54.842Z,14.30
2018-04-23T04:16:34.314Z,14.30
2018-04-23T04:19:01.860Z,14.30
2018-04-23T04:21:30.186Z,14.30
2018-04-23T04:23:58.476Z,14.30
2018-04-23T04:26:26.023Z,14.30
2018-04-23T04:28:53.556Z,14.40
2018-04-23T04:31:21.933Z,14.40
2018-04-23T04:33:49.470Z,14.50
2018-04-23T04:36:17.791Z,14.80
2018-04-23T04:38:45.326Z,14.70
2018-04-23T04:41:12.901Z,15.20
2018-04-23T04:43:40.445Z,15.60
2018-04-23T04:46:07.987Z,16.10
2018-04-23T04:48:36.321Z,16.40
2018-04-23T04:51:04.619Z,16.40
2018-04-23T04:53:32.181Z,16.30
2018-04-23T04:55:59.715Z,16.70
2018-04-23T04:58:27.271Z,17.50
2018-04-23T05:00:54.810Z,18.30
2018-04-23T05:03:22.353Z,18.60
2018-04-23T05:05:50.697Z,18.50
2018-04-23T05:08:18.248Z,18.50
2018-04-23T05:10:45.781Z,18.70
2018-04-23T05:13:13.326Z,19.20
2018-04-23T05:15:40.865Z,19.40
2018-04-23T05:18:09.189Z,20.10
2018-04-23T05:20:36.769Z,20.10
2018-04-23T05:23:04.321Z,20.60
2018-04-23T05:25:31.895Z,20.50
2018-04-23T05:27:59.428Z,20.90
2018-04-23T05:30:27.006Z,21.20
2018-04-23T05:32:54.545Z,21.20
2018-04-23T05:35:22.104Z,21.20
2018-04-23T05:37:49.631Z,21.10
2018-04-23T05:40:17.964Z,20.90
2018-04-23T05:42:45.567Z,20.90
2018-04-23T05:45:13.909Z,21.70
2018-04-23T05:47:41.454Z,21.70
2018-04-23T05:50:09.050Z,21.90
2018-04-23T05:52:37.378Z,22.10
2018-04-23T05:55:04.976Z,22.10
2018-04-23T05:57:32.509Z,22.10
2018-04-23T06:00:00.100Z,22.10
2018-04-23T06:02:27.647Z,21.80
2018-04-23T06:04:55.188Z,21.70
2018-04-23T06:07:22.757Z,22.00
2018-04-23T06:09:50.294Z,21.70
2018-04-23T06:12:17.869Z,21.70
2018-04-23T06:14:45.413Z,22.50
2018-04-23T06:17:12.981Z,23.40
2018-04-23T06:19:40.594Z,24.50
2018-04-23T06:22:08.137Z,24.90
2018-04-23T06:24:35.662Z,24.60
2018-04-23T06:27:03.223Z,23.80
2018-04-23T06:29:30.768Z,22.90
2018-04-23T06:31:58.345Z,21.80
2018-04-23T06:34:25.884Z,21.20
2018-04-23T06:36:53.440Z,20.80
2018-04-23T06:39:21.908Z,20.50
2018-04-23T06:41:50.249Z,19.90
2018-04-23T06:44:17.779Z,19.90
2018-04-23T06:46:45.376Z,20.00
2018-04-23T06:49:12.915Z,20.00
2018-04-23T06:51:40.470Z,19.90
2018-04-23T06:54:08.031Z,19.70
2018-04-23T06:56:35.586Z,19.60
2018-04-23T06:59:03.146Z,19.50
2018-04-23T07:01:30.743Z,19.40
2018-04-23T07:03:58.303Z,19.50
2018-04-23T07:06:25.849Z,19.50
2018-04-23T07:08:53.400Z,19.50
2018-04-23T07:11:21.710Z,19.50
2018-04-23T07:13:50.041Z,19.40
2018-04-23T07:16:17.602Z,19.40
2018-04-23T07:18:45.164Z,19.40
2018-04-23T07:21:12.719Z,19.50
2018-04-23T07:23:40.285Z,19.50
2018-04-23T07:26:07.827Z,19.80
2018-04-23T07:28:35.383Z,19.90
2018-04-23T07:31:02.929Z,19.90
2018-04-23T07:33:30.539Z,19.80
2018-04-23T07:35:58.076Z,19.60
2018-04-23T07:38:25.613Z,19.70
2018-04-23T07:40:53.168Z,20.00
2018-04-23T07:43:21.460Z,20.90
2018-04-23T07:45:49.772Z,20.90
2018-04-23T07:48:17.322Z,22.20
2018-04-23T07:50:44.874Z,23.70
2018-04-23T07:53:12.473Z,24.80
2018-04-23T07:55:40.051Z,26.10
2018-04-23T07:58:08.372Z,27.70
2018-04-23T08:00:35.965Z,27.60
2018-04-23T08:03:03.502Z,27.00
2018-04-23T08:05:31.062Z,26.90
2018-04-23T08:07:58.632Z,27.10
2018-04-23T08:10:26.281Z,27.10
2018-04-23T08:12:53.823Z,27.40
2018-04-23T08:15:21.381Z,27.90
2018-04-23T08:17:48.963Z,27.90
2018-04-23T08:20:16.542Z,27.70
2018-04-23T08:22:44.077Z,28.00
2018-04-23T08:25:11.628Z,28.40
2018-04-23T08:27:39.176Z,28.40
2018-04-23T08:30:06.735Z,29.00
2018-04-23T08:32:34.311Z,28.20
2018-04-23T08:35:01.866Z,27.50
2018-04-23T08:37:29.670Z,27.90
2018-04-23T08:39:57.164Z,27.80
2018-04-23T08:42:25.484Z,26.80
2018-04-23T08:44:53.025Z,26.80
2018-04-23T08:47:20.663Z,27.20
2018-04-23T08:49:48.164Z,26.90
2018-04-23T08:52:16.717Z,27.00
2018-04-23T08:54:45.028Z,26.60
2018-04-23T08:57:12.604Z,26.60
2018-04-23T08:59:40.137Z,26.40
2018-04-23T09:02:07.663Z,26.40
2018-04-23T09:04:35.989Z,25.80
2018-04-23T09:07:03.535Z,25.70
2018-04-23T09:09:31.093Z,25.40
2018-04-23T09:11:58.623Z,25.00
2018-04-23T09:14:26.948Z,23.70
2018-04-23T09:16:54.512Z,23.70
2018-04-23T09:19:22.081Z,23.90
2018-04-23T09:21:49.637Z,23.70
2018-04-23T09:24:17.217Z,23.40
2018-04-23T09:26:44.760Z,23.00
2018-04-23T09:29:12.333Z,22.70
2018-04-23T09:31:39.887Z,22.80
2018-04-23T09:34:07.450Z,22.60
2018-04-23T09:36:34.992Z,22.80
2018-04-23T09:39:02.627Z,22.80
2018-04-23T09:41:30.129Z,22.50
2018-04-23T09:43:57.737Z,22.30
2018-04-23T09:46:26.042Z,23.00
2018-04-23T09:48:53.573Z,22.90
2018-04-23T09:51:21.907Z,23.20
2018-04-23T09:53:49.449Z,23.10
2018-04-23T09:56:17.013Z,23.00
2018-04-23T09:58:44.540Z,22.70
2018-04-23T10:01:17.988Z,21.80
2018-04-23T10:03:55.426Z,21.50
2018-04-23T10:06:23.027Z,21.30
2018-04-23T10:08:50.590Z,21.30
2018-04-23T10:11:18.139Z,21.20
2018-04-23T10:13:46.402Z,20.90
2018-04-23T10:16:13.981Z,20.70
2018-04-23T10:18:41.547Z,20.70
2018-04-23T10:21:09.111Z,20.50
2018-04-23T10:23:36.660Z,20.60
2018-04-23T10:26:04.221Z,20.40
2018-04-23T10:28:31.779Z,20.20
2018-04-23T10:30:59.361Z,20.10
2018-04-23T10:33:26.905Z,20.20
2018-04-23T10:35:54.445Z,20.10
2018-04-23T10:38:22.011Z,20.10
2018-04-23T10:40:49.553Z,20.00
2018-04-23T10:43:17.128Z,19.90
2018-04-23T10:45:44.668Z,19.70
2018-04-23T10:48:12.241Z,19.70
2018-04-23T10:50:39.788Z,19.60
2018-04-23T10:53:08.106Z,19.90
2018-04-23T10:55:35.668Z,19.80
2018-04-23T10:58:03.227Z,20.10
2018-04-23T11:00:30.761Z,20.20
2018-04-23T11:02:58.349Z,20.30
2018-04-23T11:05:25.908Z,20.50
2018-04-23T11:07:53.631Z,20.50
2018-04-23T11:10:21.957Z,20.90
2018-04-23T11:12:49.523Z,20.80
2018-04-23T11:15:17.067Z,21.30
2018-04-23T11:17:44.635Z,21.40
2018-04-23T11:20:12.193Z,21.90
2018-04-23T11:22:39.768Z,22.10
2018-04-23T11:25:07.343Z,22.90
2018-04-23T11:27:34.871Z,22.90
2018-04-23T11:30:03.455Z,23.10
2018-04-23T11:32:31.002Z,23.50
2018-04-23T11:34:58.560Z,23.90
2018-04-23T11:37:26.105Z,24.40
2018-04-23T11:39:53.673Z,24.30
2018-04-23T11:42:21.225Z,24.10
2018-04-23T11:44:48.792Z,23.60
2018-04-23T11:47:16.330Z,23.50
2018-04-23T11:49:44.676Z,24.20
2018-04-23T11:52:12.219Z,24.20
2018-04-23T11:54:39.806Z,24.10
2018-04-23T11:57:07.344Z,23.90
2018-04-23T11:59:34.915Z,23.60
2018-04-23T12:02:02.447Z,23.60
2018-04-23T12:04:30.007Z,23.50
2018-04-23T12:06:57.604Z,23.30
2018-04-23T12:09:25.146Z,23.30
2018-04-23T12:11:52.717Z,22.90
2018-04-23T12:14:21.045Z,22.50
2018-04-23T12:16:48.608Z,22.50
2018-04-23T12:19:16.169Z,22.80
2018-04-23T12:21:43.765Z,23.20
2018-04-23T12:24:11.300Z,23.60
2018-04-23T12:26:38.856Z,23.10
2018-04-23T12:29:06.384Z,22.90
2018-04-23T12:31:34.724Z,22.90
2018-04-23T12:34:02.260Z,22.80
2018-04-23T12:36:29.842Z,23.30
2018-04-23T12:38:57.388Z,23.90
2018-04-23T12:41:25.051Z,23.90
2018-04-23T12:43:52.600Z,23.30
2018-04-23T12:46:20.249Z,23.30
2018-04-23T12:48:47.749Z,23.10
2018-04-23T12:51:15.318Z,22.80
2018-04-23T12:53:42.878Z,22.70
2018-04-23T12:56:10.438Z,22.70
2018-04-23T12:58:38.002Z,22.80
2018-04-23T13:01:05.545Z,22.80
2018-04-23T13:03:33.095Z,22.60
2018-04-23T13:06:00.625Z,22.50
2018-04-23T13:08:28.193Z,22.70
2018-04-23T13:10:55.738Z,23.20
2018-04-23T13:13:24.066Z,23.90
2018-04-23T13:15:51.605Z,23.90
2018-04-23T13:18:19.189Z,23.40
2018-04-23T13:20:46.733Z,23.70
2018-04-23T13:23:14.316Z,24.20
2018-04-23T13:25:41.863Z,24.00
2018-04-23T13:28:09.421Z,23.70
2018-04-23T13:30:36.989Z,23.30
2018-04-23T13:33:04.532Z,23.00
2018-04-23T13:35:32.088Z,22.90
2018-04-23T13:37:59.625Z,22.90
2018-04-23T13:40:27.184Z,22.70
2018-04-23T13:42:54.752Z,22.50
2018-04-23T13:45:22.309Z,22.50
2018-04-23T13:47:49.855Z,22.20
2018-04-23T13:50:18.198Z,22.00
2018-04-23T13:52:45.734Z,22.00
2018-04-23T13:55:13.287Z,21.90
2018-04-23T13:57:40.832Z,21.90
2018-04-23T14:00:08.402Z,21.90
2018-04-23T14:02:36.051Z,21.80
2018-04-23T14:05:03.655Z,22.00
2018-04-23T14:07:31.194Z,21.80
2018-04-23T14:09:58.787Z,21.70
2018-04-23T14:12:26.331Z,21.50
2018-04-23T14:14:53.921Z,21.50
2018-04-23T14:17:21.510Z,21.80
2018-04-23T14:19:49.828Z,21.60
2018-04-23T14:22:17.389Z,21.50
2018-04-23T14:24:44.924Z,21.40
2018-04-23T14:27:12.540Z,21.70
2018-04-23T14:29:40.079Z,21.50
2018-04-23T14:32:07.659Z,21.50
2018-04-23T14:34:35.210Z,21.50
2018-04-23T14:37:02.819Z,21.60
2018-04-23T14:39:30.396Z,21.80
2018-04-23T14:41:57.951Z,21.90
2018-04-23T14:44:25.497Z,22.20
2018-04-23T14:46:53.052Z,22.70
2018-04-23T14:49:20.592Z,22.40
2018-04-23T14:51:48.178Z,22.20
2018-04-23T14:54:15.727Z,22.10
2018-04-23T14:56:44.052Z,21.80
2018-04-23T14:59:11.608Z,21.80
2018-04-23T15:01:39.151Z,21.70
2018-04-23T15:04:07.628Z,21.60
2018-04-23T15:06:35.185Z,21.40
2018-04-23T15:09:02.746Z,21.30
2018-04-23T15:11:30.277Z,21.40
2018-04-23T15:13:58.611Z,21.40
2018-04-23T15:16:26.156Z,21.40
2018-04-23T15:18:53.830Z,21.60
2018-04-23T15:21:21.365Z,21.30
2018-04-23T15:23:48.945Z,21.20
2018-04-23T15:26:16.489Z,21.00
2018-04-23T15:28:44.057Z,21.00
2018-04-23T15:31:11.612Z,21.20
2018-04-23T15:33:39.164Z,21.30
2018-04-23T15:36:06.711Z,21.00
2018-04-23T15:38:35.051Z,21.00
2018-04-23T15:41:02.631Z,21.00
2018-04-23T15:43:30.204Z,20.80
2018-04-23T15:45:58.550Z,20.60
2018-04-23T15:48:26.107Z,20.60
2018-04-23T15:50:53.682Z,20.50
2018-04-23T15:53:21.220Z,20.50
2018-04-23T15:55:49.602Z,20.40
2018-04-23T15:58:17.143Z,20.40
2018-04-23T16:00:44.809Z,20.30
2018-04-23T16:03:12.383Z,20.30
2018-04-23T16:05:39.999Z,20.30
2018-04-23T16:08:08.340Z,20.40
2018-04-23T16:10:36.015Z,20.40
2018-04-23T16:13:03.570Z,20.40
2018-04-23T16:15:31.174Z,20.50
2018-04-23T16:17:58.729Z,20.70
2018-04-23T16:20:26.304Z,20.80
2018-04-23T16:22:53.853Z,20.80
2018-04-23T16:25:21.434Z,20.70
2018-04-23T16:27:48.996Z,20.70
2018-04-23T16:30:16.577Z,20.80
2018-04-23T16:32:44.130Z,20.90
2018-04-23T16:35:11.676Z,20.90
2018-04-23T16:37:39.338Z,20.80
2018-04-23T16:40:06.886Z,20.70
2018-04-23T16:42:34.463Z,20.60
2018-04-23T16:45:02.005Z,20.50
2018-04-23T16:47:29.690Z,20.40
2018-04-23T16:49:57.223Z,20.30
2018-04-23T16:52:24.811Z,20.10
2018-04-23T16:54:52.366Z,19.90
2018-04-23T16:57:20.933Z,19.70
2018-04-23T16:59:48.472Z,19.50
2018-04-23T17:02:16.802Z,19.30
2018-04-23T17:04:44.348Z,19.30
2018-04-23T17:07:11.892Z,19.40
2018-04-23T17:09:39.426Z,19.40
2018-04-23T17:12:07.866Z,19.40
2018-04-23T17:14:35.402Z,19.40
2018-04-23T17:17:02.938Z,19.40
2018-04-23T17:19:31.265Z,19.10
2018-04-23T17:21:58.795Z,19.10
2018-04-23T17:24:26.470Z,19.00
2018-04-23T17:26:54.003Z,18.80
2018-04-23T17:29:21.578Z,18.70
2018-04-23T17:31:49.112Z,18.60
2018-04-23T17:34:17.447Z,18.40
2018-04-23T17:36:44.992Z,18.40
2018-04-23T17:39:12.622Z,18.40
2018-04-23T17:41:41.020Z,18.10
2018-04-23T17:44:08.571Z,18.10
2018-04-23T17:46:36.113Z,18.00
2018-04-23T17:49:04.465Z,17.90
2018-04-23T17:51:32.023Z,17.90
2018-04-23T17:53:59.579Z,17.80
2018-04-23T17:56:27.893Z,17.70
2018-04-23T17:58:56.223Z,17.50
2018-04-23T18:01:23.768Z,17.50
2018-04-23T18:03:51.305Z,17.40
2018-04-23T18:06:18.862Z,17.30
2018-04-23T18:08:46.420Z,17.20
2018-04-23T18:11:14.748Z,17.00
2018-04-23T18:13:42.305Z,17.00
2018-04-23T18:16:09.865Z,16.90
2018-04-23T18:18:37.397Z,16.90
2018-04-23T18:21:04.972Z,16.90
2018-04-23T18:23:32.515Z,16.90
2018-04-23T18:26:00.101Z,16.70
2018-04-23T18:28:27.628Z,16.60
2018-04-23T18:30:55.188Z,16.60
2018-04-23T18:33:22.734Z,16.50
2018-04-23T18:35:51.058Z,16.30
2018-04-23T18:38:18.618Z,16.40
2018-04-23T18:40:47.010Z,16.30
2018-04-23T18:43:14.548Z,16.20
2018-04-23T18:45:42.141Z,16.20
2018-04-23T18:48:09.707Z,16.10
2018-04-23T18:50:37.317Z,16.10
2018-04-23T18:53:05.620Z,15.90
2018-04-23T18:55:33.167Z,15.90
2018-04-23T18:58:00.759Z,15.90
2018-04-23T19:00:28.302Z,15.90
2018-04-23T19:02:55.867Z,15.80
2018-04-23T19:05:24.420Z,15.70
2018-04-23T19:07:51.978Z,15.60
2018-04-23T19:10:19.511Z,15.70
2018-04-23T19:12:48.816Z,15.60
2018-04-23T19:15:16.372Z,15.50
2018-04-23T19:17:44.696Z,15.40
2018-04-23T19:20:16.490Z,15.40
2018-04-23T19:22:44.781Z,15.30
2018-04-23T19:25:13.111Z,15.40
2018-04-23T19:27:40.678Z,15.40
2018-04-23T19:30:08.237Z,15.40
2018-04-23T19:32:35.817Z,15.30
2018-04-23T19:35:03.368Z,15.20
2018-04-23T19:37:30.944Z,15.20
2018-04-23T19:39:58.490Z,15.10
2018-04-23T19:42:26.035Z,15.00
2018-04-23T19:44:53.609Z,15.00
2018-04-23T19:47:21.928Z,14.80
2018-04-23T19:49:50.250Z,14.70
2018-04-23T19:52:17.802Z,14.70
2018-04-23T19:54:45.388Z,14.60
2018-04-23T19:57:12.939Z,14.50
2018-04-23T19:59:40.509Z,14.40
2018-04-23T20:02:08.053Z,14.30
2018-04-23T20:04:35.624Z,14.30
2018-04-23T20:07:03.176Z,14.30
2018-04-23T20:09:30.735Z,14.20
2018-04-23T20:11:58.290Z,14.20
2018-04-23T20:14:25.934Z,14.10
2018-04-23T20:16:53.499Z,14.10
2018-04-23T20:19:21.085Z,14.10
2018-04-23T20:21:48.642Z,14.10
2018-04-23T20:24:16.215Z,14.10
2018-04-23T20:26:43.792Z,14.00
2018-04-23T20:29:11.368Z,14.00
2018-04-23T20:31:39.703Z,13.90
2018-04-23T20:34:07.241Z,13.90
2018-04-23T20:36:34.796Z,13.90
2018-04-23T20:39:02.343Z,14.00
2018-04-23T20:41:30.668Z,13.90
2018-04-23T20:43:58.211Z,13.80
2018-04-23T20:46:25.797Z,13.90
2018-04-23T20:48:53.331Z,13.90
2018-04-23T20:51:21.472Z,13.90
2018-04-23T20:53:49.764Z,13.90
2018-04-23T20:56:18.089Z,13.90
2018-04-23T20:58:45.624Z,13.90
2018-04-23T21:01:13.214Z,13.90
2018-04-23T21:03:40.771Z,13.90
2018-04-23T21:06:08.328Z,13.90
2018-04-23T21:08:35.867Z,13.90
2018-04-23T21:11:03.421Z,13.80
2018-04-23T21:13:30.987Z,13.80
2018-04-23T21:15:58.589Z,13.90
2018-04-23T21:18:26.150Z,13.90
2018-04-23T21:20:53.694Z,14.00
2018-04-23T21:23:21.250Z,13.90
2018-04-23T21:25:48.798Z,14.00
2018-04-23T21:28:16.386Z,13.90
2018-04-23T21:30:43.948Z,14.10
2018-04-23T21:33:11.518Z,14.10
2018-04-23T21:35:39.072Z,14.10
2018-04-23T21:38:06.659Z,14.10
2018-04-23T21:40:34.204Z,14.10
2018-04-23T21:43:01.757Z,14.20
2018-04-23T21:45:29.329Z,14.20
2018-04-23T21:47:57.679Z,14.10
2018-04-23T21:50:25.321Z,14.10
2018-04-23T21:52:52.900Z,14.10
2018-04-23T21:55:20.442Z,14.10
2018-04-23T21:57:48.012Z,14.20
2018-04-23T22:00:15.566Z,14.20
2018-04-23T22:02:43.193Z,14.30
2018-04-23T22:05:10.675Z,14.20
2018-04-23T22:07:38.252Z,14.10
2018-04-23T22:10:05.814Z,14.00
2018-04-23T22:12:33.368Z,14.00
2018-04-23T22:15:00.985Z,14.00
2018-04-23T22:17:29.306Z,13.90
2018-04-23T22:19:56.849Z,13.90
2018-04-23T22:22:25.388Z,13.90
2018-04-23T22:24:52.960Z,14.10
2018-04-23T22:27:20.502Z,14.00
2018-04-23T22:29:48.081Z,13.90
2018-04-23T22:32:15.629Z,13.80
2018-04-23T22:34:43.182Z,13.70
2018-04-23T22:37:10.729Z,13.60
2018-04-23T22:39:38.303Z,13.70
2018-04-23T22:42:05.837Z,13.70
2018-04-23T22:44:33.396Z,13.60
2018-04-23T22:47:00.939Z,13.60
2018-04-23T22:49:28.480Z,13.60
2018-04-23T22:51:56.799Z,13.40
2018-04-23T22:54:24.336Z,13.50
2018-04-23T22:56:51.888Z,13.40
2018-04-23T22:59:19.432Z,13.40
2018-04-23T23:01:47.774Z,13.20
2018-04-23T23:04:15.315Z,13.10
2018-04-23T23:06:42.892Z,13.20
2018-04-23T23:09:10.450Z,13.00
2018-04-23T23:11:38.010Z,13.00
2018-04-23T23:14:05.536Z,13.00
2018-04-23T23:16:33.099Z,12.90
2018-04-23T23:19:00.643Z,12.80
2018-04-23T23:21:28.217Z,12.80
2018-04-23T23:23:55.764Z,12.80
2018-04-23T23:26:23.334Z,12.70
2018-04-23T23:28:50.865Z,12.60
2018-04-23T23:31:18.468Z,12.50
2018-04-23T23:33:46.016Z,12.50
2018-04-23T23:36:13.549Z,12.40
2018-04-23T23:38:41.874Z,12.20
2018-04-23T23:41:09.396Z,12.20
2018-04-23T23:43:37.717Z,12.20
2018-04-23T23:46:05.257Z,12.20
2018-04-23T23:48:32.833Z,12.20
2018-04-23T23:51:00.493Z,12.10
2018-04-23T23:53:28.053Z,12.10
2018-04-23T23:55:55.600Z,12.00
2018-04-23T23:58:23.166Z,12.00
